Terminal Aerodrome Forecast
Issued by NWS State College, PA

Home | Current Version | Previous Version | Text Only | Print | Product List | Glossary On
Versions: 1 2 3 4 5 6 7 8 9 10 11 12 13 14 15 16 17 18 19 20 21 22 23 24 25 26 27 28 29 30
000
FTUS41 KCTP 312330
TAFMDT
TAF
KMDT 312330Z 0100/0124 24005KT P6SM OVC060
     FM010900 05007KT 5SM -RA BR OVC030
     FM011700 03008G15KT 2SM -RA BR OVC018=

USA.gov is the U.S. government's official web portal to all federal, state and local government web resources and services.